EFSA

Savonlinna Airport

Savonlinna, Finland
METAR EFSA 140120Z AUTO 12002KT 7000 -SG OVC014 M06/M07 Q1034
Observed Flight Rules
Dec-14 @ 01:20 UTC (18 minutes ago) Marginal Visual Flight Rules
Wind Visibility Clouds Conditions
120° at 2 knots 7,001 meters
  • Overcast at 1,400' AGL
  • Light Snow grains
Temperatures Readings
Current -6°C / 21°F
Dewpoint -7°C / 19°F
Humidity 93%
Altimeter 30.53" Hg
Pressure 1034 hPa
Elevation 95
METAR EFSA 140120Z AUTO 12002KT 7000 -SG OVC014 M06/M07 Q1034
Observed Flight Rules
Dec-14 @ 01:20 UTC
(18 minutes ago)
MVFR
Wind Visibility
120° at 2 knots 7,001 meters
Clouds
  • Overcast at 1,400' AGL
Conditions
  • Light Snow grains
Temperature Dewpoint
-6°C / 21°F -7°C / 19°F
Humidity Altimeter Pressure
93% 30.53" Hg 1034 hPa